createdAt,value
2023-02-04T00:01:55.812Z,99927.00
2023-02-04T00:04:26.669Z,99934.00
2023-02-04T00:06:57.590Z,99927.00
2023-02-04T00:09:28.459Z,99928.00
2023-02-04T00:11:59.320Z,99935.00
2023-02-04T00:14:30.199Z,99941.00
2023-02-04T00:17:01.129Z,99934.00
2023-02-04T00:19:31.990Z,99934.00
2023-02-04T00:22:04.006Z,99936.00
2023-02-04T00:24:38.632Z,99933.00
2023-02-04T00:27:09.629Z,99946.00
2023-02-04T00:29:40.484Z,99942.00
2023-02-04T00:32:11.690Z,99943.00
2023-02-04T00:34:42.716Z,99949.00
2023-02-04T00:37:13.586Z,99944.00
2023-02-04T00:39:44.461Z,99941.00
2023-02-04T00:42:16.167Z,99944.00
2023-02-04T00:44:47.253Z,99953.00
2023-02-04T00:47:18.108Z,99934.00
2023-02-04T00:49:48.958Z,99949.00
2023-02-04T00:52:19.843Z,99947.00
2023-02-04T00:54:50.791Z,99971.00
2023-02-04T00:57:21.680Z,99931.00
2023-02-04T00:59:52.520Z,99956.00
2023-02-04T01:02:23.404Z,99952.00
2023-02-04T01:04:54.284Z,99947.00
2023-02-04T01:07:25.243Z,99953.00
2023-02-04T01:09:56.101Z,99954.00
2023-02-04T01:12:28.773Z,99947.00
2023-02-04T01:14:59.980Z,99959.00
2023-02-04T01:17:30.830Z,99955.00
2023-02-04T01:20:01.692Z,99961.00
2023-02-04T01:22:32.560Z,99958.00
2023-02-04T01:25:03.573Z,99968.00
2023-02-04T01:27:34.423Z,100002.00
2023-02-04T01:30:07.694Z,99985.00
2023-02-04T01:32:38.583Z,99985.00
2023-02-04T01:35:09.866Z,99985.00
2023-02-04T01:37:40.761Z,99985.00
2023-02-04T01:40:13.304Z,99988.00
2023-02-04T01:42:44.340Z,99996.00
2023-02-04T01:45:15.216Z,99986.00
2023-02-04T01:47:46.932Z,99991.00
2023-02-04T01:50:18.694Z,99986.00
2023-02-04T01:52:49.601Z,99996.00
2023-02-04T01:55:29.318Z,99988.00
2023-02-04T01:58:00.478Z,99987.00
2023-02-04T02:00:33.536Z,99998.00
2023-02-04T02:03:05.215Z,100000.00
2023-02-04T02:05:45.624Z,99996.00
2023-02-04T02:08:17.230Z,99994.00
2023-02-04T02:10:49.575Z,100000.00
2023-02-04T02:13:20.563Z,100010.00
2023-02-04T02:15:51.510Z,100003.00
2023-02-04T02:18:23.351Z,100008.00
2023-02-04T02:20:55.288Z,100016.00
2023-02-04T02:23:46.855Z,100014.00
2023-02-04T02:26:19.542Z,100022.00
2023-02-04T02:28:51.226Z,100031.00
2023-02-04T02:31:23.691Z,100037.00
2023-02-04T02:33:55.803Z,100043.00
2023-02-04T02:36:26.683Z,100044.00
2023-02-04T02:38:58.889Z,100050.00
2023-02-04T02:41:30.076Z,100039.00
2023-02-04T02:44:01.953Z,100028.00
2023-02-04T02:46:33.297Z,100033.00
2023-02-04T02:49:04.318Z,100032.00
2023-02-04T02:51:35.250Z,100045.00
2023-02-04T02:54:06.093Z,100042.00
2023-02-04T02:56:36.975Z,100051.00
2023-02-04T02:59:18.980Z,100047.00
2023-02-04T03:01:58.131Z,100060.00
2023-02-04T03:04:32.675Z,100057.00
2023-02-04T03:07:03.782Z,100061.00
2023-02-04T03:09:35.411Z,100061.00
2023-02-04T03:12:06.964Z,100063.00
2023-02-04T03:14:39.083Z,100064.00
2023-02-04T03:17:11.355Z,100069.00
2023-02-04T03:19:42.745Z,100082.00
2023-02-04T03:22:13.621Z,100069.00
2023-02-04T03:24:44.473Z,100070.00
2023-02-04T03:27:16.234Z,100085.00
2023-02-04T03:29:47.228Z,100082.00
2023-02-04T03:32:18.124Z,100086.00
2023-02-04T03:34:48.973Z,100097.00
2023-02-04T03:37:19.825Z,100093.00
2023-02-04T03:39:50.716Z,100090.00
2023-02-04T03:42:21.643Z,100097.00
2023-02-04T03:44:52.497Z,100093.00
2023-02-04T03:47:23.396Z,100104.00
2023-02-04T03:49:54.271Z,100097.00
2023-02-04T03:52:25.205Z,100108.00
2023-02-04T03:54:56.077Z,100115.00
2023-02-04T03:57:27.003Z,100119.00
2023-02-04T03:59:57.853Z,100118.00
2023-02-04T04:02:28.785Z,100122.00
2023-02-04T04:04:59.669Z,100112.00
2023-02-04T04:07:30.562Z,100130.00
2023-02-04T04:10:01.430Z,100133.00
2023-02-04T04:12:32.588Z,100143.00
2023-02-04T04:15:04.276Z,100135.00
2023-02-04T04:17:35.261Z,100140.00
2023-02-04T04:20:07.009Z,100136.00
2023-02-04T04:22:37.919Z,100150.00
2023-02-04T04:25:08.877Z,100150.00
2023-02-04T04:27:39.841Z,100152.00
2023-02-04T04:30:11.962Z,100148.00
2023-02-04T04:32:42.877Z,100155.00
2023-02-04T04:35:13.800Z,100155.00
2023-02-04T04:37:44.675Z,100157.00
2023-02-04T04:40:15.697Z,100151.00
2023-02-04T04:42:46.646Z,100149.00
2023-02-04T04:45:17.721Z,100157.00
2023-02-04T04:47:48.646Z,100150.00
2023-02-04T04:50:19.566Z,100173.00
2023-02-04T04:52:50.437Z,100164.00
2023-02-04T04:55:21.306Z,100163.00
2023-02-04T04:57:52.198Z,100159.00
2023-02-04T05:00:23.339Z,100155.00
2023-02-04T05:02:54.222Z,100156.00
2023-02-04T05:05:25.354Z,100161.00
2023-02-04T05:07:57.540Z,100169.00
2023-02-04T05:10:28.441Z,100172.00
2023-02-04T05:12:59.403Z,100162.00
2023-02-04T05:15:30.300Z,100163.00
2023-02-04T05:18:01.460Z,100153.00
2023-02-04T05:20:32.867Z,100160.00
2023-02-04T05:23:05.636Z,100173.00
2023-02-04T05:25:36.787Z,100161.00
2023-02-04T05:28:07.762Z,100160.00
2023-02-04T05:30:38.650Z,100169.00
2023-02-04T05:33:09.546Z,100168.00
2023-02-04T05:35:40.434Z,100179.00
2023-02-04T05:38:11.306Z,100190.00
2023-02-04T05:40:42.206Z,100191.00
2023-02-04T05:43:13.142Z,100186.00
2023-02-04T05:45:44.037Z,100183.00
2023-02-04T05:48:14.922Z,100191.00
2023-02-04T05:50:45.780Z,100180.00
2023-02-04T05:53:16.638Z,100182.00
2023-02-04T05:55:47.504Z,100172.00
2023-02-04T05:58:18.431Z,100179.00
2023-02-04T06:00:49.486Z,100174.00
2023-02-04T06:03:21.634Z,100179.00
2023-02-04T06:05:52.627Z,100186.00
2023-02-04T06:08:23.861Z,100201.00
2023-02-04T06:10:54.787Z,100200.00
2023-02-04T06:13:25.648Z,100209.00
2023-02-04T06:15:56.554Z,100210.00
2023-02-04T06:18:27.416Z,100219.00
2023-02-04T06:20:58.277Z,100231.00
2023-02-04T06:23:29.156Z,100219.00
2023-02-04T06:26:03.366Z,100235.00
2023-02-04T06:28:34.341Z,100230.00
2023-02-04T06:31:05.582Z,100231.00
2023-02-04T06:33:37.325Z,100243.00
2023-02-04T06:36:08.503Z,100235.00
2023-02-04T06:38:39.379Z,100239.00
2023-02-04T06:41:10.275Z,100257.00
2023-02-04T06:43:41.132Z,100254.00
2023-02-04T06:46:12.035Z,100253.00
2023-02-04T06:48:42.963Z,100256.00
2023-02-04T06:51:13.792Z,100260.00
2023-02-04T06:53:45.961Z,100263.00
2023-02-04T06:56:16.897Z,100272.00
2023-02-04T06:58:47.781Z,100271.00
2023-02-04T07:01:18.911Z,100274.00
2023-02-04T07:03:49.838Z,100276.00
2023-02-04T07:06:23.789Z,100264.00
2023-02-04T07:08:54.692Z,100269.00
2023-02-04T07:11:25.733Z,100282.00
2023-02-04T07:13:56.620Z,100284.00
2023-02-04T07:16:27.489Z,100285.00
2023-02-04T07:18:58.343Z,100296.00
2023-02-04T07:21:29.441Z,100296.00
2023-02-04T07:24:00.503Z,100308.00
2023-02-04T07:26:31.463Z,100311.00
2023-02-04T07:29:02.345Z,100323.00
2023-02-04T07:31:33.310Z,100324.00
2023-02-04T07:34:04.283Z,100323.00
2023-02-04T07:36:35.281Z,100331.00
2023-02-04T07:39:07.210Z,100335.00
2023-02-04T07:41:38.083Z,100344.00
2023-02-04T07:44:09.020Z,100352.00
2023-02-04T07:46:39.897Z,100323.00
2023-02-04T07:49:10.905Z,100338.00
2023-02-04T07:51:41.810Z,100333.00
2023-02-04T07:54:13.116Z,100332.00
2023-02-04T07:56:44.048Z,100338.00
2023-02-04T07:59:14.949Z,100348.00
2023-02-04T08:01:47.847Z,100366.00
2023-02-04T08:04:18.768Z,100370.00
2023-02-04T08:06:49.610Z,100376.00
2023-02-04T08:09:20.527Z,100371.00
2023-02-04T08:11:51.364Z,100359.00
2023-02-04T08:14:22.226Z,100363.00
2023-02-04T08:16:53.140Z,100373.00
2023-02-04T08:19:24.161Z,100378.00
2023-02-04T08:21:55.103Z,100372.00
2023-02-04T08:24:25.959Z,100371.00
2023-02-04T08:26:58.308Z,100382.00
2023-02-04T08:29:29.205Z,100388.00
2023-02-04T08:32:00.245Z,100392.00
2023-02-04T08:34:31.574Z,100395.00
2023-02-04T08:37:02.680Z,100389.00
2023-02-04T08:39:33.792Z,100397.00
2023-02-04T08:42:04.663Z,100395.00
2023-02-04T08:44:35.629Z,100405.00
2023-02-04T08:47:06.635Z,100409.00
2023-02-04T08:49:37.793Z,100411.00
2023-02-04T08:52:08.885Z,100406.00
2023-02-04T08:54:39.704Z,100410.00
2023-02-04T08:57:10.894Z,100418.00
2023-02-04T08:59:41.757Z,100421.00
2023-02-04T09:02:12.749Z,100428.00
2023-02-04T09:04:43.636Z,100431.00
2023-02-04T09:07:14.504Z,100422.00
2023-02-04T09:09:45.379Z,100425.00
2023-02-04T09:12:16.389Z,100430.00
2023-02-04T09:14:47.412Z,100434.00
2023-02-04T09:17:19.089Z,100435.00
2023-02-04T09:19:50.034Z,100434.00
2023-02-04T09:22:21.008Z,100438.00
2023-02-04T09:24:51.904Z,100445.00
2023-02-04T09:27:22.792Z,100449.00
2023-02-04T09:29:53.652Z,100443.00
2023-02-04T09:32:24.649Z,100449.00
2023-02-04T09:34:55.543Z,100455.00
2023-02-04T09:37:27.039Z,100459.00
2023-02-04T09:39:57.860Z,100464.00
2023-02-04T09:42:29.475Z,100457.00
2023-02-04T09:45:03.098Z,100468.00
2023-02-04T09:47:34.011Z,100468.00
2023-02-04T09:50:05.183Z,100475.00
2023-02-04T09:52:36.076Z,100468.00
2023-02-04T09:55:14.920Z,100471.00
2023-02-04T09:57:47.514Z,100469.00
2023-02-04T10:00:26.713Z,100467.00
2023-02-04T10:03:02.525Z,100470.00
2023-02-04T10:05:37.203Z,100467.00
2023-02-04T10:08:10.151Z,100476.00
2023-02-04T10:10:41.255Z,100471.00
2023-02-04T10:13:20.398Z,100465.00
2023-02-04T10:15:52.976Z,100466.00
2023-02-04T10:18:30.769Z,100466.00
2023-02-04T10:21:14.901Z,100470.00
2023-02-04T10:23:56.690Z,100465.00
2023-02-04T10:26:30.591Z,100472.00
2023-02-04T10:29:12.362Z,100471.00
2023-02-04T10:31:50.968Z,100466.00
2023-02-04T10:34:32.203Z,100463.00
2023-02-04T10:37:22.563Z,100458.00
2023-02-04T10:39:53.807Z,100455.00
2023-02-04T10:42:30.584Z,100461.00
2023-02-04T10:45:01.743Z,100453.00
2023-02-04T10:47:32.950Z,100454.00
2023-02-04T10:50:15.459Z,100451.00
2023-02-04T10:52:52.356Z,100450.00
2023-02-04T10:55:24.628Z,100446.00
2023-02-04T10:57:55.492Z,100447.00
2023-02-04T11:00:26.621Z,100449.00
2023-02-04T11:03:09.882Z,100449.00
2023-02-04T11:05:40.766Z,100446.00
2023-02-04T11:08:38.693Z,100447.00
2023-02-04T11:11:25.164Z,100455.00
2023-02-04T11:13:56.023Z,100458.00
2023-02-04T11:16:30.482Z,100464.00
2023-02-04T11:19:05.885Z,100450.00
2023-02-04T11:21:36.719Z,100460.00
2023-02-04T11:24:16.356Z,100459.00
2023-02-04T11:26:52.541Z,100456.00
2023-02-04T11:29:27.730Z,100460.00
2023-02-04T11:32:03.964Z,100449.00
2023-02-04T11:34:52.911Z,100456.00
2023-02-04T11:37:39.816Z,100457.00
2023-02-04T11:40:35.166Z,100457.00
2023-02-04T11:43:16.045Z,100455.00
2023-02-04T11:45:46.944Z,100455.00
2023-02-04T11:48:20.383Z,100457.00
2023-02-04T11:50:59.527Z,100456.00
2023-02-04T11:53:34.498Z,100459.00
2023-02-04T11:56:05.581Z,100459.00
2023-02-04T11:58:42.037Z,100452.00
2023-02-04T12:01:21.429Z,100460.00
2023-02-04T12:04:05.326Z,100456.00
2023-02-04T12:06:37.651Z,100455.00
2023-02-04T12:09:24.331Z,100461.00
2023-02-04T12:12:01.153Z,100464.00
2023-02-04T12:14:36.708Z,100461.00
2023-02-04T12:17:20.548Z,100465.00
2023-02-04T12:19:51.380Z,100490.00
2023-02-04T12:22:22.409Z,100463.00
2023-02-04T12:24:53.270Z,100455.00
2023-02-04T12:27:24.205Z,100461.00
2023-02-04T12:29:55.121Z,100462.00
2023-02-04T12:32:25.999Z,100490.00
2023-02-04T12:34:56.828Z,100464.00
2023-02-04T12:37:27.679Z,100468.00
2023-02-04T12:39:58.519Z,100463.00
2023-02-04T12:42:29.406Z,100453.00
2023-02-04T12:45:00.324Z,100490.00
2023-02-04T12:47:31.235Z,100475.00
2023-02-04T12:50:02.115Z,100470.00
2023-02-04T12:52:33.224Z,100480.00
2023-02-04T12:55:05.120Z,100478.00
2023-02-04T12:57:36.135Z,100479.00
2023-02-04T13:00:08.494Z,100483.00
2023-02-04T13:02:39.366Z,100488.00
2023-02-04T13:05:10.520Z,100482.00
2023-02-04T13:07:41.748Z,100476.00
2023-02-04T13:10:14.369Z,100477.00
2023-02-04T13:12:45.228Z,100473.00
2023-02-04T13:15:16.742Z,100473.00
2023-02-04T13:17:47.646Z,100470.00
2023-02-04T13:20:19.152Z,100472.00
2023-02-04T13:22:50.045Z,100476.00
2023-02-04T13:25:20.933Z,100472.00
2023-02-04T13:27:51.892Z,100470.00
2023-02-04T13:30:23.127Z,100479.00
2023-02-04T13:32:54.103Z,100475.00
2023-02-04T13:35:25.441Z,100471.00
2023-02-04T13:37:56.626Z,100476.00
2023-02-04T13:40:27.595Z,100481.00
2023-02-04T13:42:58.435Z,100482.00
2023-02-04T13:45:29.334Z,100487.00
2023-02-04T13:48:00.348Z,100494.00
2023-02-04T13:50:31.623Z,100486.00
2023-02-04T13:53:02.619Z,100493.00
2023-02-04T13:55:33.658Z,100494.00
2023-02-04T13:58:05.326Z,100501.00
2023-02-04T14:00:36.227Z,100508.00
2023-02-04T14:03:07.092Z,100511.00
2023-02-04T14:05:37.969Z,100501.00
2023-02-04T14:08:08.822Z,100504.00
2023-02-04T14:10:39.667Z,100528.00
2023-02-04T14:13:10.966Z,100498.00
2023-02-04T14:15:42.078Z,100497.00
2023-02-04T14:18:13.342Z,100490.00
2023-02-04T14:20:45.419Z,100493.00
2023-02-04T14:23:16.344Z,100508.00
2023-02-04T14:25:47.197Z,100491.00
2023-02-04T14:28:18.167Z,100493.00
2023-02-04T14:30:49.088Z,100490.00
2023-02-04T14:33:20.611Z,100500.00
2023-02-04T14:35:51.543Z,100501.00
2023-02-04T14:38:22.406Z,100505.00
2023-02-04T14:40:53.212Z,100503.00
2023-02-04T14:43:24.328Z,100511.00
2023-02-04T14:45:55.245Z,100510.00
2023-02-04T14:48:26.125Z,100524.00
2023-02-04T14:50:56.967Z,100514.00
2023-02-04T14:53:27.871Z,100523.00
2023-02-04T14:55:58.738Z,100520.00
2023-02-04T14:58:29.600Z,100530.00
2023-02-04T15:01:00.942Z,100525.00
2023-02-04T15:03:31.837Z,100520.00
2023-02-04T15:06:02.880Z,100520.00
2023-02-04T15:08:33.902Z,100529.00
2023-02-04T15:11:05.333Z,100524.00
2023-02-04T15:13:36.208Z,100532.00
2023-02-04T15:16:07.110Z,100531.00
2023-02-04T15:18:38.459Z,100532.00
2023-02-04T15:21:09.698Z,100533.00
2023-02-04T15:23:40.566Z,100528.00
2023-02-04T15:26:11.476Z,100531.00
2023-02-04T15:28:42.363Z,100530.00
2023-02-04T15:31:13.292Z,100529.00
2023-02-04T15:33:44.277Z,100534.00
2023-02-04T15:36:15.367Z,100531.00
2023-02-04T15:38:46.510Z,100536.00
2023-02-04T15:41:17.422Z,100535.00
2023-02-04T15:43:48.873Z,100538.00
2023-02-04T15:46:19.815Z,100544.00
2023-02-04T15:48:50.767Z,100543.00
2023-02-04T15:51:21.598Z,100540.00
2023-02-04T15:53:52.670Z,100548.00
2023-02-04T15:56:23.616Z,100555.00
2023-02-04T15:58:54.888Z,100552.00
2023-02-04T16:01:25.798Z,100551.00
2023-02-04T16:03:57.732Z,100563.00
2023-02-04T16:06:28.643Z,100565.00
2023-02-04T16:08:59.580Z,100564.00
2023-02-04T16:11:30.787Z,100571.00
2023-02-04T16:14:01.648Z,100572.00
2023-02-04T16:16:32.527Z,100600.00
2023-02-04T16:19:03.465Z,100580.00
2023-02-04T16:21:34.312Z,100582.00
2023-02-04T16:24:05.796Z,100575.00
2023-02-04T16:26:36.616Z,100591.00
2023-02-04T16:29:07.499Z,100587.00
2023-02-04T16:31:38.536Z,100597.00
2023-02-04T16:34:09.489Z,100603.00
2023-02-04T16:36:40.502Z,100603.00
2023-02-04T16:39:11.465Z,100600.00
2023-02-04T16:41:42.400Z,100603.00
2023-02-04T16:44:13.247Z,100610.00
2023-02-04T16:46:44.121Z,100608.00
2023-02-04T16:49:15.044Z,100615.00
2023-02-04T16:51:45.927Z,100623.00
2023-02-04T16:54:16.861Z,100628.00
2023-02-04T16:56:47.752Z,100614.00
2023-02-04T16:59:19.023Z,100611.00
2023-02-04T17:01:50.103Z,100618.00
2023-02-04T17:04:20.987Z,100624.00
2023-02-04T17:06:52.429Z,100620.00
2023-02-04T17:09:23.396Z,100621.00
2023-02-04T17:11:54.686Z,100627.00
2023-02-04T17:14:25.636Z,100623.00
2023-02-04T17:16:56.542Z,100626.00
2023-02-04T17:19:27.430Z,100635.00
2023-02-04T17:21:59.076Z,100638.00
2023-02-04T17:24:29.960Z,100635.00
2023-02-04T17:27:03.289Z,100628.00
2023-02-04T17:29:34.207Z,100638.00
2023-02-04T17:32:06.338Z,100640.00
2023-02-04T17:34:37.170Z,100640.00
2023-02-04T17:37:08.078Z,100648.00
2023-02-04T17:39:39.254Z,100642.00
2023-02-04T17:42:11.118Z,100647.00
2023-02-04T17:44:42.028Z,100648.00
2023-02-04T17:47:12.970Z,100655.00
2023-02-04T17:49:43.986Z,100654.00
2023-02-04T17:52:15.239Z,100658.00
2023-02-04T17:54:46.498Z,100658.00
2023-02-04T17:57:21.624Z,100660.00
2023-02-04T17:59:52.602Z,100669.00
2023-02-04T18:02:32.864Z,100672.00
2023-02-04T18:05:14.846Z,100665.00
2023-02-04T18:08:02.961Z,100677.00
2023-02-04T18:10:37.542Z,100672.00
2023-02-04T18:13:34.039Z,100667.00
2023-02-04T18:16:31.526Z,100668.00
2023-02-04T18:19:35.176Z,100665.00
2023-02-04T18:22:18.022Z,100661.00
2023-02-04T18:24:49.301Z,100660.00
2023-02-04T18:27:24.578Z,100655.00
2023-02-04T18:29:56.761Z,100665.00
2023-02-04T18:32:38.400Z,100666.00
2023-02-04T18:35:32.388Z,100669.00
2023-02-04T18:38:22.240Z,100677.00
2023-02-04T18:41:02.540Z,100668.00
2023-02-04T18:43:38.131Z,100689.00
2023-02-04T18:46:27.941Z,100661.00
2023-02-04T18:49:20.710Z,100661.00
2023-02-04T18:51:52.832Z,100663.00
2023-02-04T18:54:28.317Z,100679.00
2023-02-04T18:57:39.674Z,100677.00
2023-02-04T19:00:10.544Z,100679.00
2023-02-04T19:02:52.902Z,100680.00
2023-02-04T19:05:36.555Z,100680.00
2023-02-04T19:08:07.410Z,100677.00
2023-02-04T19:10:42.384Z,100682.00
2023-02-04T19:13:27.685Z,100687.00
2023-02-04T19:16:18.100Z,100689.00
2023-02-04T19:18:50.616Z,100681.00
2023-02-04T19:21:25.873Z,100681.00
2023-02-04T19:24:21.533Z,100683.00
2023-02-04T19:26:55.446Z,100671.00
2023-02-04T19:29:41.034Z,100668.00
2023-02-04T19:32:24.698Z,100674.00
2023-02-04T19:35:01.620Z,100674.00
2023-02-04T19:37:41.445Z,100686.00
2023-02-04T19:40:35.495Z,100683.00
2023-02-04T19:43:37.695Z,100681.00
2023-02-04T19:46:23.997Z,100676.00
2023-02-04T19:48:57.037Z,100680.00
2023-02-04T19:51:29.490Z,100680.00
2023-02-04T19:54:19.960Z,100677.00
2023-02-04T19:56:52.568Z,100682.00
2023-02-04T19:59:28.626Z,100679.00
2023-02-04T20:02:33.918Z,100677.00
2023-02-04T20:05:19.730Z,100693.00
2023-02-04T20:07:51.252Z,100687.00
2023-02-04T20:10:27.877Z,100681.00
2023-02-04T20:13:12.942Z,100682.00
2023-02-04T20:15:44.026Z,100681.00
2023-02-04T20:18:19.965Z,100681.00
2023-02-04T20:20:50.804Z,100699.00
2023-02-04T20:23:29.325Z,100704.00
2023-02-04T20:26:01.471Z,100708.00
2023-02-04T20:28:40.070Z,100704.00
2023-02-04T20:31:22.916Z,100704.00
2023-02-04T20:33:59.941Z,100722.00
2023-02-04T20:36:41.059Z,100722.00
2023-02-04T20:39:43.564Z,100718.00
2023-02-04T20:42:30.354Z,100719.00
2023-02-04T20:45:28.149Z,100724.00
2023-02-04T20:48:20.388Z,100726.00
2023-02-04T20:50:56.352Z,100726.00
2023-02-04T20:53:48.468Z,100723.00
2023-02-04T20:56:40.690Z,100726.00
2023-02-04T20:59:14.124Z,100729.00
2023-02-04T21:01:51.337Z,100741.00
2023-02-04T21:04:34.543Z,100731.00
2023-02-04T21:07:17.280Z,100732.00
2023-02-04T21:09:49.383Z,100727.00
2023-02-04T21:12:21.576Z,100730.00
2023-02-04T21:14:52.441Z,100728.00
2023-02-04T21:17:23.338Z,100720.00
2023-02-04T21:19:54.209Z,100731.00
2023-02-04T21:22:25.125Z,100733.00
2023-02-04T21:24:55.994Z,100727.00
2023-02-04T21:27:26.854Z,100726.00
2023-02-04T21:29:57.773Z,100739.00
2023-02-04T21:32:28.698Z,100731.00
2023-02-04T21:34:59.590Z,100732.00
2023-02-04T21:37:30.437Z,100728.00
2023-02-04T21:40:01.419Z,100753.00
2023-02-04T21:42:32.313Z,100728.00
2023-02-04T21:45:03.477Z,100728.00
2023-02-04T21:47:34.361Z,100736.00
2023-02-04T21:50:05.536Z,100745.00
2023-02-04T21:52:36.490Z,100742.00
2023-02-04T21:55:08.743Z,100742.00
2023-02-04T21:57:39.683Z,100755.00
2023-02-04T22:00:11.692Z,100750.00
2023-02-04T22:02:42.601Z,100744.00
2023-02-04T22:05:13.595Z,100750.00
2023-02-04T22:07:44.801Z,100746.00
2023-02-04T22:10:20.166Z,100740.00
2023-02-04T22:12:51.385Z,100747.00
2023-02-04T22:15:24.047Z,100743.00
2023-02-04T22:17:55.747Z,100749.00
2023-02-04T22:20:26.596Z,100740.00
2023-02-04T22:22:57.530Z,100731.00
2023-02-04T22:25:28.502Z,100723.00
2023-02-04T22:27:59.443Z,100726.00
2023-02-04T22:30:30.631Z,100724.00
2023-02-04T22:33:02.685Z,100729.00
2023-02-04T22:35:35.693Z,100758.00
2023-02-04T22:38:06.649Z,100717.00
2023-02-04T22:40:37.532Z,100718.00
2023-02-04T22:43:08.431Z,100716.00
2023-02-04T22:45:39.286Z,100724.00
2023-02-04T22:48:10.145Z,100733.00
2023-02-04T22:50:40.977Z,100729.00
2023-02-04T22:53:11.832Z,100726.00
2023-02-04T22:55:42.660Z,100743.00
2023-02-04T22:58:13.590Z,100744.00
2023-02-04T23:00:44.581Z,100745.00
2023-02-04T23:03:15.643Z,100754.00
2023-02-04T23:05:47.917Z,100754.00
2023-02-04T23:08:18.822Z,100751.00
2023-02-04T23:10:50.238Z,100747.00
2023-02-04T23:13:21.248Z,100756.00
2023-02-04T23:15:52.081Z,100773.00
2023-02-04T23:18:22.964Z,100747.00
2023-02-04T23:20:53.974Z,100748.00
2023-02-04T23:23:26.023Z,100740.00
2023-02-04T23:25:57.510Z,100731.00
2023-02-04T23:28:28.384Z,100742.00
2023-02-04T23:30:59.534Z,100745.00
2023-02-04T23:33:30.714Z,100731.00
2023-02-04T23:36:01.800Z,100738.00
2023-02-04T23:38:32.806Z,100732.00
2023-02-04T23:41:03.690Z,100740.00
2023-02-04T23:43:34.616Z,100750.00
2023-02-04T23:46:05.685Z,100742.00
2023-02-04T23:48:36.567Z,100742.00
2023-02-04T23:51:07.441Z,100744.00
2023-02-04T23:53:38.312Z,100744.00
2023-02-04T23:56:09.174Z,100736.00
2023-02-04T23:58:40.031Z,100736.00
